Time;durP1;ratioP1;P1;durP2;ratioP2;P2;SDS_P1;SDS_P2;PMS_P1;PMS_P2;Temp;Humidity;BMP_temperature;BMP_pressure;BME280_temperature;BME280_humidity;BME280_pressure;Samples;Min_cycle;Max_cycle;Signal;HPM_P1;HPM_P2
2023/12/16 00:02:03;;;;;;;1999.90;999.90;;;3.50;95.20;;;;;;5045648;28;20068;-76
2023/12/16 00:04:30;;;;;;;1999.90;999.90;;;3.60;95.30;;;;;;5043872;28;20116;-78
2023/12/16 00:06:56;;;;;;;1999.90;999.90;;;3.50;95.20;;;;;;5045945;28;20686;-74
2023/12/16 00:09:21;;;;;;;1999.90;999.90;;;3.50;95.20;;;;;;5045694;28;20044;-77
2023/12/16 00:11:47;;;;;;;1999.90;999.90;;;3.60;95.20;;;;;;5044677;28;20457;-76
2023/12/16 00:14:13;;;;;;;1999.90;999.90;;;3.60;95.20;;;;;;5046922;28;20044;-76
2023/12/16 00:16:44;;;;;;;1999.90;999.90;;;3.40;95.10;;;;;;5045997;28;20108;-75
2023/12/16 00:19:10;;;;;;;1999.90;999.90;;;3.40;95.20;;;;;;5045850;28;20029;-75
2023/12/16 00:21:37;;;;;;;1999.90;999.90;;;3.30;95.20;;;;;;5045254;28;20029;-75
2023/12/16 00:24:09;;;;;;;1999.90;999.90;;;3.30;95.50;;;;;;5045143;28;20465;-76
2023/12/16 00:26:34;;;;;;;1999.90;999.90;;;3.30;95.50;;;;;;5041774;28;20041;-76
2023/12/16 00:29:00;;;;;;;1999.90;999.90;;;3.20;95.70;;;;;;5044059;28;20039;-77
2023/12/16 00:31:28;;;;;;;1999.90;999.90;;;3.30;95.80;;;;;;5044174;28;20082;-76
2023/12/16 00:33:53;;;;;;;1999.90;999.90;;;3.20;95.80;;;;;;5043115;28;20028;-76
2023/12/16 00:36:20;;;;;;;1999.90;999.90;;;3.20;95.90;;;;;;5044816;28;20033;-76
2023/12/16 00:38:46;;;;;;;1999.90;999.90;;;3.20;95.90;;;;;;5044830;28;20091;-79
2023/12/16 00:41:12;;;;;;;1999.90;999.90;;;3.20;96.00;;;;;;5041964;28;20487;-79
2023/12/16 00:43:38;;;;;;;1999.90;999.90;;;3.20;96.20;;;;;;5041553;28;20065;-77
2023/12/16 00:46:03;;;;;;;1999.90;999.90;;;3.20;96.30;;;;;;5046934;28;20048;-76
2023/12/16 00:48:30;;;;;;;1999.90;999.90;;;3.20;96.30;;;;;;5030112;28;20051;-76
2023/12/16 00:50:56;;;;;;;1999.90;999.90;;;3.20;96.40;;;;;;5048939;28;20040;-77
2023/12/16 00:53:21;;;;;;;1999.90;999.90;;;3.20;96.30;;;;;;5050557;28;20402;-77
2023/12/16 00:55:47;;;;;;;1999.90;999.90;;;3.10;96.40;;;;;;5049667;28;20028;-76
2023/12/16 00:58:13;;;;;;;1999.90;999.90;;;3.20;96.50;;;;;;5048247;28;20029;-77
2023/12/16 01:00:39;;;;;;;1999.90;999.90;;;3.20;96.40;;;;;;5050828;28;20087;-74
2023/12/16 01:03:05;;;;;;;1999.90;999.90;;;3.10;96.40;;;;;;5048376;28;20057;-78
2023/12/16 01:05:30;;;;;;;1999.90;999.90;;;3.10;96.40;;;;;;5049053;28;20055;-77
2023/12/16 01:07:59;;;;;;;1999.90;999.90;;;3.20;96.40;;;;;;5046595;28;20364;-78
2023/12/16 01:10:24;;;;;;;1999.90;999.90;;;3.10;96.30;;;;;;5050720;28;21341;-76
2023/12/16 01:12:50;;;;;;;1999.90;999.90;;;3.10;96.30;;;;;;5048948;28;20076;-77
2023/12/16 01:15:16;;;;;;;1999.90;999.90;;;2.90;96.20;;;;;;5050568;28;20479;-76
2023/12/16 01:17:41;;;;;;;1999.90;999.90;;;2.80;96.30;;;;;;5048028;28;20567;-79
2023/12/16 01:20:08;;;;;;;1999.90;999.90;;;2.80;96.50;;;;;;5048520;28;20104;-78
2023/12/16 01:22:33;;;;;;;1999.90;999.90;;;2.70;96.70;;;;;;5043046;28;20437;-77
2023/12/16 01:24:59;;;;;;;1999.90;999.90;;;2.60;96.80;;;;;;5048531;28;20036;-76
2023/12/16 01:27:24;;;;;;;1999.90;999.90;;;2.60;96.90;;;;;;5047663;28;21366;-79
2023/12/16 01:29:50;;;;;;;1999.90;999.90;;;2.60;97.10;;;;;;5048504;28;20121;-78
2023/12/16 01:32:16;;;;;;;1999.90;999.90;;;2.60;97.20;;;;;;5048557;28;20057;-75
2023/12/16 01:34:41;;;;;;;1999.90;999.90;;;2.70;97.20;;;;;;5048178;28;20659;-75
2023/12/16 01:37:07;;;;;;;1999.90;999.90;;;2.70;97.30;;;;;;5048763;28;20052;-77
2023/12/16 01:39:32;;;;;;;1999.90;999.90;;;2.70;97.40;;;;;;5048996;28;20061;-76
2023/12/16 01:41:59;;;;;;;1999.90;999.90;;;2.80;97.50;;;;;;5049398;28;20081;-77
2023/12/16 01:44:24;;;;;;;1999.90;999.90;;;2.80;97.50;;;;;;5050183;28;20061;-76
2023/12/16 01:46:51;;;;;;;1999.90;999.90;;;2.80;97.50;;;;;;5047300;28;20041;-76
2023/12/16 01:49:17;;;;;;;1999.90;999.90;;;2.70;97.40;;;;;;5045854;28;20049;-75
2023/12/16 01:51:43;;;;;;;1999.90;999.90;;;2.60;97.40;;;;;;5049230;28;20438;-77
2023/12/16 01:54:11;;;;;;;1999.90;999.90;;;2.60;97.50;;;;;;5046208;28;20495;-76
2023/12/16 01:56:38;;;;;;;1999.90;999.90;;;2.60;97.60;;;;;;5049427;28;20100;-76
2023/12/16 01:59:05;;;;;;;1999.90;999.90;;;2.60;97.70;;;;;;5047345;28;20036;-76
2023/12/16 02:01:32;;;;;;;1999.90;999.90;;;2.60;97.70;;;;;;5049016;28;20039;-76
2023/12/16 02:03:58;;;;;;;1999.90;999.90;;;2.60;97.80;;;;;;5047992;28;20056;-76
2023/12/16 02:06:25;;;;;;;1999.90;999.90;;;2.50;97.90;;;;;;5048889;28;20033;-76
2023/12/16 02:08:51;;;;;;;1999.90;999.90;;;2.50;97.90;;;;;;5047381;28;20036;-77
2023/12/16 02:11:16;;;;;;;1999.90;999.90;;;2.60;98.00;;;;;;5048616;28;20021;-78
2023/12/16 02:13:42;;;;;;;1999.90;999.90;;;2.50;97.90;;;;;;5045280;28;20096;-79
2023/12/16 02:16:11;;;;;;;1999.90;999.90;;;2.50;97.90;;;;;;5045378;28;20033;-76
2023/12/16 02:18:37;;;;;;;1999.90;999.90;;;2.50;97.90;;;;;;5047228;28;20182;-76
2023/12/16 02:21:04;;;;;;;1999.90;999.90;;;2.60;98.10;;;;;;5047977;28;20958;-79
2023/12/16 02:23:29;;;;;;;1999.90;999.90;;;2.50;98.10;;;;;;5048859;28;20036;-75
2023/12/16 02:25:55;;;;;;;1999.90;999.90;;;2.50;98.10;;;;;;5048052;28;20391;-76
2023/12/16 02:28:24;;;;;;;1999.90;999.90;;;2.50;98.00;;;;;;5046905;28;20039;-76
2023/12/16 02:30:49;;;;;;;1999.90;999.90;;;2.60;98.10;;;;;;5045424;28;20028;-79
2023/12/16 02:33:17;;;;;;;1999.90;999.90;;;2.70;98.30;;;;;;5046437;28;20025;-78
2023/12/16 02:35:44;;;;;;;1999.90;999.90;;;2.70;98.20;;;;;;5047425;28;20052;-78
2023/12/16 02:38:09;;;;;;;1999.90;999.90;;;2.70;98.20;;;;;;5046177;28;20036;-77
2023/12/16 02:40:41;;;;;;;1999.90;999.90;;;2.90;98.20;;;;;;5048175;28;20402;-76
2023/12/16 02:43:09;;;;;;;1999.90;999.90;;;2.80;98.10;;;;;;5044950;28;20438;-75
2023/12/16 02:45:34;;;;;;;1999.90;999.90;;;2.90;98.00;;;;;;5048513;28;20033;-76
2023/12/16 02:48:00;;;;;;;1999.90;999.90;;;3.00;98.00;;;;;;5047811;28;20115;-78
2023/12/16 02:50:26;;;;;;;1999.90;999.90;;;3.20;98.00;;;;;;5048454;28;20132;-78
2023/12/16 02:52:51;;;;;;;1999.90;999.90;;;3.10;97.80;;;;;;5029660;28;20051;-77
2023/12/16 02:55:20;;;;;;;1999.90;999.90;;;3.00;97.60;;;;;;5045723;28;20037;-75
2023/12/16 02:57:45;;;;;;;1999.90;999.90;;;2.90;97.60;;;;;;5046615;28;20108;-73
2023/12/16 03:00:12;;;;;;;1999.90;999.90;;;2.90;97.60;;;;;;5046126;28;20120;-77
2023/12/16 03:02:37;;;;;;;1999.90;999.90;;;2.90;97.60;;;;;;5044938;28;20033;-75
2023/12/16 03:05:03;;;;;;;1999.90;999.90;;;3.00;97.60;;;;;;5046999;28;20086;-76
2023/12/16 03:07:29;;;;;;;1999.90;999.90;;;3.00;97.60;;;;;;5047130;28;20919;-77
2023/12/16 03:09:56;;;;;;;1999.90;999.90;;;3.00;97.60;;;;;;5044330;28;20033;-76
2023/12/16 03:12:24;;;;;;;1999.90;999.90;;;3.10;97.60;;;;;;5045705;28;20522;-76
2023/12/16 03:14:50;;;;;;;1999.90;999.90;;;3.10;97.50;;;;;;5043675;28;20051;-76
2023/12/16 03:17:16;;;;;;;1999.90;999.90;;;3.10;97.30;;;;;;5043107;28;20028;-76
2023/12/16 03:19:42;;;;;;;1999.90;999.90;;;3.00;97.30;;;;;;5046215;28;20391;-76
2023/12/16 03:22:08;;;;;;;1999.90;999.90;;;3.00;97.30;;;;;;5046665;28;20040;-76
2023/12/16 03:24:34;;;;;;;1999.90;999.90;;;3.10;97.40;;;;;;5046559;28;20029;-75
2023/12/16 03:26:59;;;;;;;1999.90;999.90;;;3.10;97.20;;;;;;5045651;28;20653;-76
2023/12/16 03:29:25;;;;;;;1999.90;999.90;;;3.00;97.10;;;;;;5044348;28;20506;-75
2023/12/16 03:31:51;;;;;;;1999.90;999.90;;;3.00;96.90;;;;;;5044846;28;20025;-79
2023/12/16 03:34:16;;;;;;;1999.90;999.90;;;2.90;97.10;;;;;;5045282;28;20075;-76
2023/12/16 03:36:43;;;;;;;1999.90;999.90;;;2.80;97.10;;;;;;5042677;28;20029;-77
2023/12/16 03:39:10;;;;;;;1999.90;999.90;;;2.70;97.10;;;;;;5042380;28;20033;-76
2023/12/16 03:41:36;;;;;;;1999.90;999.90;;;2.80;97.40;;;;;;5044525;28;20033;-76
2023/12/16 03:44:02;;;;;;;1999.90;999.90;;;2.80;97.50;;;;;;5044737;28;20697;-77
2023/12/16 03:46:27;;;;;;;1999.90;999.90;;;2.80;97.40;;;;;;5045719;28;20123;-76
2023/12/16 03:48:53;;;;;;;1999.90;999.90;;;2.90;97.40;;;;;;5044018;28;20454;-76
2023/12/16 03:51:21;;;;;;;1999.90;999.90;;;2.90;97.30;;;;;;5046738;28;20040;-77
2023/12/16 03:53:46;;;;;;;1999.90;999.90;;;3.00;97.30;;;;;;5044722;28;20029;-76
2023/12/16 03:56:12;;;;;;;1999.90;999.90;;;2.90;97.20;;;;;;5046706;28;20040;-77
2023/12/16 03:58:38;;;;;;;1999.90;999.90;;;2.90;97.20;;;;;;5045940;28;20037;-78
2023/12/16 04:01:05;;;;;;;1999.90;999.90;;;2.90;97.20;;;;;;5043089;28;20061;-76
2023/12/16 04:03:31;;;;;;;1999.90;999.90;;;2.90;97.20;;;;;;5046878;28;20704;-76
2023/12/16 04:05:56;;;;;;;1999.90;999.90;;;2.90;97.30;;;;;;5045573;28;20068;-76
2023/12/16 04:08:23;;;;;;;1999.90;999.90;;;2.90;97.30;;;;;;5045716;28;20108;-76
2023/12/16 04:10:49;;;;;;;1999.90;999.90;;;2.90;97.20;;;;;;5044104;28;20040;-77
2023/12/16 04:13:15;;;;;;;1999.90;999.90;;;3.00;97.30;;;;;;5046214;28;20033;-76
2023/12/16 04:15:41;;;;;;;1999.90;999.90;;;2.80;97.00;;;;;;5042401;28;20033;-76
2023/12/16 04:18:08;;;;;;;1999.90;999.90;;;2.80;97.10;;;;;;5045240;28;20029;-77
2023/12/16 04:20:34;;;;;;;1999.90;999.90;;;2.70;97.10;;;;;;5042411;28;20083;-76
2023/12/16 04:22:59;;;;;;;1999.90;999.90;;;2.70;97.20;;;;;;5047793;28;20033;-75
2023/12/16 04:25:25;;;;;;;1999.90;999.90;;;2.70;97.30;;;;;;5049879;28;20560;-76
2023/12/16 04:27:51;;;;;;;1999.90;999.90;;;2.70;97.30;;;;;;5050222;28;20072;-76
2023/12/16 04:30:17;;;;;;;1999.90;999.90;;;2.70;97.30;;;;;;5049829;28;20438;-76
2023/12/16 04:32:42;;;;;;;1999.90;999.90;;;2.70;97.20;;;;;;5048586;28;20033;-76
2023/12/16 04:35:08;;;;;;;1999.90;999.90;;;2.60;97.20;;;;;;5050032;28;20078;-75
2023/12/16 04:37:34;;;;;;;1999.90;999.90;;;2.40;97.00;;;;;;5049657;28;20029;-76
2023/12/16 04:40:02;;;;;;;1999.90;999.90;;;2.30;97.00;;;;;;5049805;28;20043;-76
2023/12/16 04:42:29;;;;;;;1999.90;999.90;;;2.20;97.10;;;;;;5049529;28;20090;-76
2023/12/16 04:44:55;;;;;;;1999.90;999.90;;;2.10;97.10;;;;;;5050473;28;20032;-75
2023/12/16 04:47:20;;;;;;;1999.90;999.90;;;2.10;97.20;;;;;;5032255;28;20030;-75
2023/12/16 04:49:46;;;;;;;1999.90;999.90;;;2.00;97.30;;;;;;5049995;28;20033;-74
2023/12/16 04:52:12;;;;;;;1999.90;999.90;;;1.90;97.40;;;;;;5049210;28;20041;-76
2023/12/16 04:54:37;;;;;;;1999.90;999.90;;;1.90;97.60;;;;;;5049369;28;20032;-76
2023/12/16 04:57:03;;;;;;;1999.90;999.90;;;1.80;97.80;;;;;;5049058;28;20036;-75
2023/12/16 04:59:29;;;;;;;1999.90;999.90;;;1.60;97.70;;;;;;5050163;28;20483;-75
2023/12/16 05:01:54;;;;;;;1999.90;999.90;;;1.50;97.90;;;;;;5043723;28;20037;-76
2023/12/16 05:04:20;;;;;;;1999.90;999.90;;;1.50;97.90;;;;;;5030566;28;20029;-76
2023/12/16 05:06:45;;;;;;;1999.90;999.90;;;1.40;98.10;;;;;;5049188;28;20036;-76
2023/12/16 05:09:12;;;;;;;1999.90;999.90;;;1.40;98.30;;;;;;5049435;28;20083;-76
2023/12/16 05:11:38;;;;;;;1999.90;999.90;;;1.30;98.30;;;;;;5045851;28;20738;-77
2023/12/16 05:14:05;;;;;;;1999.90;999.90;;;1.20;98.30;;;;;;5047361;28;20029;-75
2023/12/16 05:16:31;;;;;;;1999.90;999.90;;;1.20;98.40;;;;;;5046164;28;20025;-76
2023/12/16 05:18:59;;;;;;;1999.90;999.90;;;1.20;98.80;;;;;;5047265;28;20655;-76
2023/12/16 05:21:25;;;;;;;1999.90;999.90;;;1.20;98.80;;;;;;5048174;28;20029;-76
2023/12/16 05:23:52;;;;;;;1999.90;999.90;;;1.10;98.80;;;;;;5048245;28;20083;-76
2023/12/16 05:26:20;;;;;;;1999.90;999.90;;;1.00;98.70;;;;;;5046138;28;20021;-76
2023/12/16 05:28:47;;;;;;;1999.90;999.90;;;1.00;98.80;;;;;;5048329;28;20032;-76
2023/12/16 05:31:13;;;;;;;1999.90;999.90;;;0.90;98.90;;;;;;5047046;28;20036;-76
2023/12/16 05:33:43;;;;;;;1999.90;999.90;;;1.00;99.10;;;;;;5043989;28;20072;-76
2023/12/16 05:36:09;;;;;;;1999.90;999.90;;;1.00;99.40;;;;;;5048376;28;20631;-76
2023/12/16 05:38:34;;;;;;;1999.90;999.90;;;0.90;99.40;;;;;;5047823;28;20052;-75
2023/12/16 05:41:00;;;;;;;1999.90;999.90;;;0.90;99.40;;;;;;5047313;28;20117;-76
2023/12/16 05:43:26;;;;;;;1999.90;999.90;;;0.90;99.60;;;;;;5048059;28;20063;-77
2023/12/16 05:45:52;;;;;;;1999.90;999.90;;;1.00;99.80;;;;;;5048173;28;20029;-76
2023/12/16 05:48:17;;;;;;;1999.90;999.90;;;1.00;99.70;;;;;;5048904;28;20110;-76
2023/12/16 05:50:43;;;;;;;1999.90;999.90;;;1.10;99.90;;;;;;5047789;28;20086;-76
2023/12/16 05:53:09;;;;;;;1999.90;999.90;;;1.20;99.90;;;;;;5048978;28;20319;-76
2023/12/16 05:55:34;;;;;;;1999.90;999.90;;;1.20;99.80;;;;;;5046555;28;20120;-76
2023/12/16 05:58:00;;;;;;;1999.90;999.90;;;1.10;99.70;;;;;;5045860;28;20078;-76
2023/12/16 06:00:27;;;;;;;1999.90;999.90;;;1.10;99.60;;;;;;5048229;28;20536;-76
2023/12/16 06:02:52;;;;;;;1999.90;999.90;;;1.20;99.70;;;;;;5046277;28;20040;-77
2023/12/16 06:05:18;;;;;;;1999.90;999.90;;;1.20;99.70;;;;;;5046034;28;20037;-75
2023/12/16 06:07:44;;;;;;;1999.90;999.90;;;1.20;99.70;;;;;;5046049;28;20111;-75
2023/12/16 06:10:09;;;;;;;1999.90;999.90;;;1.20;99.70;;;;;;5046765;28;20112;-76
2023/12/16 06:12:36;;;;;;;1999.90;999.90;;;1.20;99.80;;;;;;5044883;28;20667;-76
2023/12/16 06:15:02;;;;;;;1999.90;999.90;;;1.30;99.80;;;;;;5045120;28;20033;-76
2023/12/16 06:17:27;;;;;;;1999.90;999.90;;;1.40;99.70;;;;;;5042435;28;20033;-77
2023/12/16 06:19:53;;;;;;;1999.90;999.90;;;1.40;99.70;;;;;;5045116;28;20052;-77
2023/12/16 06:22:19;;;;;;;1999.90;999.90;;;1.40;99.50;;;;;;5030943;28;20067;-76
2023/12/16 06:24:44;;;;;;;1999.90;999.90;;;1.40;99.50;;;;;;5048131;28;20120;-75
2023/12/16 06:27:10;;;;;;;1999.90;999.90;;;1.40;99.40;;;;;;5045826;28;20148;-76
2023/12/16 06:29:36;;;;;;;1999.90;999.90;;;1.30;99.20;;;;;;5045001;28;20040;-76
2023/12/16 06:32:03;;;;;;;1999.90;999.90;;;1.30;99.20;;;;;;5046747;28;20049;-77
2023/12/16 06:34:29;;;;;;;1999.90;999.90;;;1.30;99.20;;;;;;5046473;28;20430;-76
2023/12/16 06:36:54;;;;;;;1999.90;999.90;;;1.30;99.10;;;;;;5045035;28;20037;-76
2023/12/16 06:39:20;;;;;;;1999.90;999.90;;;1.20;99.10;;;;;;5013667;28;20032;-75
2023/12/16 06:41:45;;;;;;;1999.90;999.90;;;1.30;99.10;;;;;;5045925;28;20028;-76
2023/12/16 06:44:11;;;;;;;1999.90;999.90;;;1.30;99.10;;;;;;5047397;28;20394;-76
2023/12/16 06:46:37;;;;;;;1999.90;999.90;;;1.20;99.00;;;;;;5045895;28;20776;-76
2023/12/16 06:49:03;;;;;;;1999.90;999.90;;;1.20;99.10;;;;;;5046077;28;20041;-75
2023/12/16 06:51:28;;;;;;;1999.90;999.90;;;1.20;99.00;;;;;;5045337;28;20117;-76
2023/12/16 06:53:54;;;;;;;1999.90;999.90;;;1.20;99.00;;;;;;5046061;28;20063;-76
2023/12/16 06:56:20;;;;;;;1999.90;999.90;;;1.20;99.00;;;;;;5041310;28;20029;-76
2023/12/16 06:58:47;;;;;;;1999.90;999.90;;;1.20;99.00;;;;;;5043933;28;20029;-75
2023/12/16 07:01:13;;;;;;;1999.90;999.90;;;1.20;98.90;;;;;;5040041;28;20037;-76
2023/12/16 07:03:39;;;;;;;1999.90;999.90;;;1.20;98.90;;;;;;5043841;28;20046;-75
2023/12/16 07:06:05;;;;;;;1999.90;999.90;;;1.20;98.90;;;;;;5040477;28;20126;-76
2023/12/16 07:08:31;;;;;;;1999.90;999.90;;;1.10;98.60;;;;;;5044113;28;20072;-76
2023/12/16 07:10:57;;;;;;;1999.90;999.90;;;1.10;98.80;;;;;;5041645;28;20065;-76
2023/12/16 07:13:22;;;;;;;1999.90;999.90;;;1.20;98.90;;;;;;5042781;28;20116;-76
2023/12/16 07:15:48;;;;;;;1999.90;999.90;;;1.20;98.90;;;;;;5043444;28;20025;-75
2023/12/16 07:18:14;;;;;;;1999.90;999.90;;;1.20;98.70;;;;;;5041926;28;20075;-80
2023/12/16 07:20:39;;;;;;;1999.90;999.90;;;1.20;98.80;;;;;;5044960;28;20052;-75
2023/12/16 07:23:05;;;;;;;1999.90;999.90;;;1.20;98.80;;;;;;5045545;28;20069;-75
2023/12/16 07:25:31;;;;;;;1999.90;999.90;;;1.20;99.10;;;;;;5042029;28;20434;-76
2023/12/16 07:27:57;;;;;;;1999.90;999.90;;;1.20;98.70;;;;;;5038553;28;20029;-74
2023/12/16 07:30:22;;;;;;;1999.90;999.90;;;1.20;98.70;;;;;;5041445;28;20098;-75
2023/12/16 07:32:48;;;;;;;1999.90;999.90;;;1.20;98.60;;;;;;5042365;28;20075;-74
2023/12/16 07:35:15;;;;;;;1999.90;999.90;;;1.20;98.70;;;;;;5042737;28;20045;-75
2023/12/16 07:37:41;;;;;;;1999.90;999.90;;;1.10;98.60;;;;;;5041493;28;20036;-74
2023/12/16 07:40:11;;;;;;;1999.90;999.90;;;1.30;98.80;;;;;;5043767;28;20422;-75
2023/12/16 07:42:39;;;;;;;1999.90;999.90;;;1.20;98.50;;;;;;5038520;28;20086;-76
2023/12/16 07:45:06;;;;;;;1999.90;999.90;;;1.20;98.50;;;;;;5042558;28;20128;-75
2023/12/16 07:47:33;;;;;;;1999.90;999.90;;;1.20;98.60;;;;;;5043061;28;20049;-77
2023/12/16 07:49:59;;;;;;;1999.90;999.90;;;1.20;98.60;;;;;;5043212;28;20421;-77
2023/12/16 07:52:25;;;;;;;1999.90;999.90;;;1.20;98.70;;;;;;5038720;28;20041;-78
2023/12/16 07:54:51;;;;;;;1999.90;999.90;;;1.30;98.70;;;;;;5044887;28;20047;-80
2023/12/16 07:57:17;;;;;;;1999.90;999.90;;;1.40;98.70;;;;;;5042957;28;20037;-78
2023/12/16 07:59:43;;;;;;;1999.90;999.90;;;1.40;98.70;;;;;;5042766;28;20083;-78
2023/12/16 08:02:09;;;;;;;1999.90;999.90;;;1.40;98.60;;;;;;5039974;28;20087;-77
2023/12/16 08:04:35;;;;;;;1999.90;999.90;;;1.40;98.50;;;;;;5046296;28;20021;-76
2023/12/16 08:07:02;;;;;;;1999.90;999.90;;;1.40;98.50;;;;;;5044215;28;20036;-77
2023/12/16 08:09:27;;;;;;;1999.90;999.90;;;1.30;98.50;;;;;;5044030;28;20037;-77
2023/12/16 08:11:58;;;;;;;1999.90;999.90;;;1.40;98.60;;;;;;5040939;28;20032;-76
2023/12/16 08:14:24;;;;;;;1999.90;999.90;;;1.30;98.60;;;;;;5043570;28;20160;-75
2023/12/16 08:16:49;;;;;;;1999.90;999.90;;;1.30;98.60;;;;;;5039970;28;20064;-76
2023/12/16 08:19:15;;;;;;;1999.90;999.90;;;1.40;98.80;;;;;;5045015;28;20535;-76
2023/12/16 08:21:41;;;;;;;1999.90;999.90;;;1.40;98.80;;;;;;5044466;28;20483;-76
2023/12/16 08:24:06;;;;;;;1999.90;999.90;;;1.40;98.80;;;;;;5045491;28;20029;-78
2023/12/16 08:26:32;;;;;;;1999.90;999.90;;;1.40;98.70;;;;;;5041367;28;20029;-78
2023/12/16 08:28:58;;;;;;;1999.90;999.90;;;1.40;98.80;;;;;;5041571;28;20058;-75
2023/12/16 08:31:23;;;;;;;1999.90;999.90;;;1.50;98.90;;;;;;5027079;28;20072;-76
2023/12/16 08:33:49;;;;;;;1999.90;999.90;;;1.50;98.90;;;;;;5038434;28;20038;-76
2023/12/16 08:36:15;;;;;;;1999.90;999.90;;;1.50;98.80;;;;;;5041328;28;20041;-75
2023/12/16 08:38:41;;;;;;;1999.90;999.90;;;1.60;98.80;;;;;;5044726;28;20021;-75
2023/12/16 08:41:08;;;;;;;1999.90;999.90;;;1.60;98.70;;;;;;5040332;28;20059;-75
2023/12/16 08:43:37;;;;;;;1999.90;999.90;;;1.70;98.80;;;;;;5057858;28;20037;-77
2023/12/16 08:46:03;;;;;;;1999.90;999.90;;;1.70;98.50;;;;;;5041703;28;20671;-77
2023/12/16 08:48:29;;;;;;;1999.90;999.90;;;1.80;98.60;;;;;;5044342;28;20053;-82
2023/12/16 08:50:57;;;;;;;1999.90;999.90;;;1.80;98.20;;;;;;5044106;28;20035;-78
2023/12/16 08:53:26;;;;;;;1999.90;999.90;;;1.90;98.20;;;;;;5044154;28;20672;-79
2023/12/16 08:55:52;;;;;;;1999.90;999.90;;;1.80;97.90;;;;;;5040773;28;20664;-76
2023/12/16 08:58:18;;;;;;;1999.90;999.90;;;1.90;97.70;;;;;;5044088;28;20025;-76
2023/12/16 09:00:45;;;;;;;1999.90;999.90;;;2.00;97.70;;;;;;5040646;28;20430;-77
2023/12/16 09:03:14;;;;;;;1999.90;999.90;;;2.20;97.40;;;;;;5041251;28;20503;-76
2023/12/16 09:05:41;;;;;;;1999.90;999.90;;;2.30;97.30;;;;;;5040257;28;20102;-75
2023/12/16 09:08:06;;;;;;;1999.90;999.90;;;2.40;97.10;;;;;;5038321;28;20493;-77
2023/12/16 09:10:34;;;;;;;1999.90;999.90;;;2.30;96.30;;;;;;5044793;28;20033;-75
2023/12/16 09:12:59;;;;;;;1999.90;999.90;;;2.40;96.30;;;;;;5046345;28;20020;-80
2023/12/16 09:15:25;;;;;;;1999.90;999.90;;;2.50;95.90;;;;;;5039758;28;20053;-76
2023/12/16 09:17:52;;;;;;;1999.90;999.90;;;2.50;95.30;;;;;;5045431;28;20435;-79
2023/12/16 09:20:18;;;;;;;1999.90;999.90;;;2.60;95.10;;;;;;5029158;28;20118;-77
2023/12/16 09:22:43;;;;;;;1999.90;999.90;;;2.70;94.30;;;;;;5044674;28;20029;-78
2023/12/16 09:25:09;;;;;;;1999.90;999.90;;;2.70;93.50;;;;;;5042589;28;20554;-82
2023/12/16 09:27:35;;;;;;;1999.90;999.90;;;2.80;93.50;;;;;;5028872;28;20040;-78
2023/12/16 09:30:02;;;;;;;1999.90;999.90;;;2.90;93.40;;;;;;5045205;28;20031;-79
2023/12/16 09:32:28;;;;;;;1999.90;999.90;;;3.00;93.40;;;;;;5044560;28;20025;-78
2023/12/16 09:34:53;;;;;;;1999.90;999.90;;;3.10;93.40;;;;;;5046431;28;20021;-81
2023/12/16 09:37:19;;;;;;;1999.90;999.90;;;3.20;93.40;;;;;;5046054;28;20033;-83
2023/12/16 09:39:44;;;;;;;1999.90;999.90;;;3.30;93.40;;;;;;5046767;28;20060;-81
2023/12/16 09:42:13;;;;;;;1999.90;999.90;;;3.40;93.40;;;;;;5049329;28;20037;-82
2023/12/16 09:44:41;;;;;;;1999.90;999.90;;;3.30;92.90;;;;;;5029294;28;20036;-78
2023/12/16 09:47:12;;;;;;;1999.90;999.90;;;3.40;93.00;;;;;;5047060;28;20025;-80
2023/12/16 09:49:41;;;;;;;1999.90;999.90;;;3.30;92.80;;;;;;5045044;28;20055;-81
2023/12/16 09:52:07;;;;;;;1999.90;999.90;;;3.40;92.70;;;;;;5041967;28;20040;-79
2023/12/16 09:54:33;;;;;;;1999.90;999.90;;;3.40;92.60;;;;;;5046486;28;20037;-79
2023/12/16 09:57:01;;;;;;;1999.90;999.90;;;3.50;92.20;;;;;;5029334;28;20480;-78
2023/12/16 09:59:28;;;;;;;1999.90;999.90;;;3.50;92.00;;;;;;5044421;28;20041;-81
2023/12/16 10:02:01;;;;;;;1999.90;999.90;;;3.60;92.00;;;;;;5042284;28;20037;-79
2023/12/16 10:04:29;;;;;;;1999.90;999.90;;;3.60;92.20;;;;;;5043603;28;20036;-79
2023/12/16 10:06:55;;;;;;;1999.90;999.90;;;3.70;92.20;;;;;;5042168;28;20033;-80
2023/12/16 10:09:20;;;;;;;1999.90;999.90;;;3.70;92.10;;;;;;5043579;28;20044;-83
2023/12/16 10:11:56;;;;;;;1999.90;999.90;;;3.70;92.00;;;;;;5046846;28;20029;-85
2023/12/16 10:14:22;;;;;;;1999.90;999.90;;;3.70;92.00;;;;;;5046447;28;20028;-83
2023/12/16 10:16:47;;;;;;;1999.90;999.90;;;3.80;92.20;;;;;;5048378;28;20039;-81
2023/12/16 10:19:13;;;;;;;1999.90;999.90;;;3.80;92.30;;;;;;5048117;28;20025;-79
2023/12/16 10:21:40;;;;;;;1999.90;999.90;;;3.90;92.50;;;;;;5029297;28;20703;-80
2023/12/16 10:24:06;;;;;;;1999.90;999.90;;;3.80;92.10;;;;;;5048850;28;20021;-81
2023/12/16 10:26:33;;;;;;;1999.90;999.90;;;3.90;92.50;;;;;;5047382;28;20122;-82
2023/12/16 10:29:04;;;;;;;1999.90;999.90;;;4.00;92.00;;;;;;5046314;28;20017;-80
2023/12/16 10:31:29;;;;;;;1999.90;999.90;;;4.00;92.00;;;;;;5047409;28;20108;-80
2023/12/16 10:33:55;;;;;;;1999.90;999.90;;;4.00;92.00;;;;;;5044314;28;20025;-83
2023/12/16 10:36:21;;;;;;;1999.90;999.90;;;4.00;91.60;;;;;;5045661;28;20449;-82
2023/12/16 10:38:47;;;;;;;1999.90;999.90;;;4.10;91.90;;;;;;5028954;28;20426;-84
2023/12/16 10:41:12;;;;;;;1999.90;999.90;;;4.10;91.90;;;;;;5046197;28;21055;-80
2023/12/16 10:43:38;;;;;;;1999.90;999.90;;;4.10;91.80;;;;;;5046485;28;20041;-79
2023/12/16 10:46:05;;;;;;;1999.90;999.90;;;4.20;91.40;;;;;;5045268;28;20093;-78
2023/12/16 10:48:36;;;;;;;1999.90;999.90;;;4.10;91.30;;;;;;5044301;28;20048;-76
2023/12/16 10:51:03;;;;;;;1999.90;999.90;;;4.20;91.10;;;;;;5046114;28;20052;-77
2023/12/16 10:53:39;;;;;;;1999.90;999.90;;;4.30;90.90;;;;;;5046556;28;20064;-82
2023/12/16 10:56:15;;;;;;;1999.90;999.90;;;4.30;90.50;;;;;;5041034;28;20374;-78
2023/12/16 10:59:06;;;;;;;1999.90;999.90;;;4.40;90.30;;;;;;5041997;28;20155;-80
2023/12/16 11:01:39;;;;;;;1999.90;999.90;;;4.50;90.10;;;;;;5046099;28;20037;-85
2023/12/16 11:04:14;;;;;;;1999.90;999.90;;;4.60;90.20;;;;;;5047857;28;20036;-79
2023/12/16 11:07:09;;;;;;;1999.90;999.90;;;4.60;89.90;;;;;;5044429;28;20545;-75
2023/12/16 11:09:36;;;;;;;1999.90;999.90;;;4.60;89.30;;;;;;5040217;28;20049;-84
2023/12/16 11:12:04;;;;;;;1999.90;999.90;;;4.60;89.40;;;;;;5043560;28;20025;-78
2023/12/16 11:14:33;;;;;;;1999.90;999.90;;;4.60;88.30;;;;;;5045760;28;20112;-77
2023/12/16 11:16:59;;;;;;;1999.90;999.90;;;4.70;88.40;;;;;;5042249;28;20039;-75
2023/12/16 11:19:55;;;;;;;1999.90;999.90;;;4.80;88.30;;;;;;5041364;28;20028;-75
2023/12/16 11:22:22;;;;;;;1999.90;999.90;;;4.80;88.30;;;;;;5040890;28;20037;-75
2023/12/16 11:24:52;;;;;;;1999.90;999.90;;;4.80;88.50;;;;;;5040734;28;20048;-76
2023/12/16 11:27:20;;;;;;;1999.90;999.90;;;4.80;88.20;;;;;;5043007;28;20037;-77
2023/12/16 11:29:46;;;;;;;1999.90;999.90;;;4.80;86.80;;;;;;5041788;28;20028;-75
2023/12/16 11:32:11;;;;;;;1999.90;999.90;;;4.90;87.50;;;;;;5043195;28;20501;-77
2023/12/16 11:34:42;;;;;;;1999.90;999.90;;;4.90;85.90;;;;;;5042028;28;20126;-77
2023/12/16 11:37:07;;;;;;;1999.90;999.90;;;4.90;83.60;;;;;;5043574;28;20120;-76
2023/12/16 11:39:38;;;;;;;1999.90;999.90;;;4.90;84.10;;;;;;5040749;28;20198;-75
2023/12/16 11:42:05;;;;;;;1999.90;999.90;;;4.90;84.90;;;;;;5042324;28;20283;-76
2023/12/16 11:44:53;;;;;;;1999.90;999.90;;;4.90;85.50;;;;;;5042945;28;20049;-78
2023/12/16 11:47:26;;;;;;;1999.90;999.90;;;5.00;85.30;;;;;;5042403;28;20108;-77
2023/12/16 11:49:56;;;;;;;1999.90;999.90;;;5.00;85.30;;;;;;5040134;28;20029;-78
2023/12/16 11:52:25;;;;;;;1999.90;999.90;;;5.00;85.00;;;;;;5045266;28;20053;-78
2023/12/16 11:54:55;;;;;;;1999.90;999.90;;;5.00;84.40;;;;;;5044628;28;20040;-76
2023/12/16 11:57:27;;;;;;;1999.90;999.90;;;5.00;84.30;;;;;;5042910;28;20040;-78
2023/12/16 11:59:55;;;;;;;1999.90;999.90;;;5.00;84.90;;;;;;5041286;28;20128;-75
2023/12/16 12:02:21;;;;;;;1999.90;999.90;;;4.90;84.50;;;;;;5043120;28;20123;-75
2023/12/16 12:04:47;;;;;;;1999.90;999.90;;;5.00;83.30;;;;;;5040303;28;20571;-78
2023/12/16 12:07:14;;;;;;;1999.90;999.90;;;5.10;82.80;;;;;;5023367;28;20044;-78